Lakeline, Ohio
Current Conditions -  °F | °C
As of 3:45 PM on Thursday 23 Oct 2014 (Local Time) from KCGF Reporting Station
Broken Clouds Broken Clouds  
Wind Chill: 54°   Ceiling: 1400
Heat Index: 54°   Visibility: 10mi
Dew Point: 48°   Wind: 9mph
Humidity: 82%   Direction: 300°WNW
Pressure: 30.16"   Gusts: NA
Location:  41.6454°N, 81.4495°W
Report Text: KCGF 231945Z 30008KT 10SM BKN014 12/09 A3016
Loading
Personal Weather Stations






























Interactive Weather Map
Tropical Storm Tracking
New forecast layout! Learn more

10-Day Weather Forecast

Advertisements
Track Severe Weather on mobile